Time;durP1;ratioP1;P1;durP2;ratioP2;P2;SDS_P1;SDS_P2;PMS_P1;PMS_P2;Temp;Humidity;BMP_temperature;BMP_pressure;BME280_temperature;BME280_humidity;BME280_pressure;Samples;Min_cycle;Max_cycle;Signal;HPM_P1;HPM_P2
2022/10/03 00:00:33;;;;;;;;;23.75;22.00;;;;;-142.59;100.00;56100.38;4913607;28;49778;-73
2022/10/03 00:03:56;;;;;;;;;25.75;24.75;;;;;-142.59;100.00;56100.38;4913608;28;50113;-72
2022/10/03 00:06:34;;;;;;;;;24.50;24.50;;;;;-142.59;100.00;56100.38;4872388;29;49965;-73
2022/10/03 00:09:27;;;;;;;;;26.75;24.50;;;;;-142.59;100.00;56100.38;4873093;29;49835;-73
2022/10/03 00:12:11;;;;;;;;;22.75;22.00;;;;;-142.59;100.00;56100.38;4907805;28;49766;-75
2022/10/03 00:14:43;;;;;;;;;24.00;23.00;;;;;-142.59;100.00;56100.38;4913548;28;49819;-73
2022/10/03 00:17:20;;;;;;;;;29.50;27.75;;;;;-142.59;100.00;56100.38;4913156;28;49916;-73
2022/10/03 00:20:05;;;;;;;;;20.50;19.25;;;;;-142.59;100.00;56100.38;4913099;28;50142;-73
2022/10/03 00:22:43;;;;;;;;;27.25;26.00;;;;;-142.59;100.00;56100.38;4913218;28;49704;-72
2022/10/03 00:25:20;;;;;;;;;22.75;21.75;;;;;-142.59;100.00;56100.38;4913244;28;49719;-72
2022/10/03 00:28:06;;;;;;;;;24.00;22.50;;;;;-142.59;100.00;56100.38;4913193;28;49763;-72
2022/10/03 00:31:15;;;;;;;;;23.75;22.00;;;;;-142.59;100.00;56100.38;4913304;28;49769;-72
2022/10/03 00:34:07;;;;;;;;;20.25;17.75;;;;;-142.59;100.00;56100.38;4908562;28;49906;-72
2022/10/03 00:36:36;;;;;;;;;16.25;13.00;;;;;-142.59;100.00;56100.38;4913032;28;49740;-73
2022/10/03 00:39:43;;;;;;;;;21.00;19.00;;;;;-142.59;100.00;56100.38;4912857;28;51134;-73
2022/10/03 00:42:24;;;;;;;;;22.25;21.50;;;;;-142.59;100.00;56100.38;4872390;29;49785;-72
2022/10/03 00:45:19;;;;;;;;;18.25;18.25;;;;;-142.59;100.00;56100.38;4908465;28;49577;-73
2022/10/03 00:48:03;;;;;;;;;22.25;20.00;;;;;-142.59;100.00;56100.38;4916315;28;49751;-73
2022/10/03 00:51:17;;;;;;;;;21.00;20.50;;;;;-142.59;100.00;56100.38;4916043;28;49628;-73
2022/10/03 00:54:00;;;;;;;;;18.00;17.75;;;;;-142.59;100.00;56100.38;4898201;28;49909;-73
2022/10/03 00:56:28;;;;;;;;;16.50;14.50;;;;;-142.59;100.00;56100.38;4916208;28;49651;-73
2022/10/03 00:59:12;;;;;;;;;20.50;20.00;;;;;-142.59;100.00;56100.38;4916311;28;49716;-72
2022/10/03 01:01:44;;;;;;;;;21.00;20.00;;;;;-142.59;100.00;56100.38;4915947;28;52082;-73
2022/10/03 01:04:36;;;;;;;;;19.25;19.25;;;;;-142.59;100.00;56100.38;4916126;28;49888;-73
2022/10/03 01:07:34;;;;;;;;;17.75;16.75;;;;;-142.59;100.00;56100.38;4910437;28;49814;-73
2022/10/03 01:10:18;;;;;;;;;23.25;17.00;;;;;-142.59;100.00;56100.38;4915026;28;50118;-73
2022/10/03 01:13:09;;;;;;;;;17.25;16.50;;;;;-142.59;100.00;56100.38;4930536;28;51523;-73
2022/10/03 01:15:50;;;;;;;;;18.00;17.00;;;;;-142.59;100.00;56100.38;4915929;28;49795;-74
2022/10/03 01:18:44;;;;;;;;;19.00;17.25;;;;;-142.59;100.00;56100.38;4916062;28;49856;-74
2022/10/03 01:21:23;;;;;;;;;15.50;14.00;;;;;-142.59;100.00;56100.38;4915913;28;49648;-72
2022/10/03 01:24:17;;;;;;;;;20.50;20.50;;;;;-142.59;100.00;56100.38;4915823;28;50413;-73
2022/10/03 01:26:42;;;;;;;;;8.00;6.00;;;;;-142.59;100.00;56100.38;4907042;28;49914;-73
2022/10/03 01:32:07;;;;;;;;;18.50;16.50;;;;;-142.59;100.00;56100.38;4915902;28;49740;-73
2022/10/03 01:34:45;;;;;;;;;19.50;19.50;;;;;-142.59;100.00;56100.38;4915531;28;49780;-74
2022/10/03 01:37:25;;;;;;;;;17.00;16.25;;;;;-142.59;100.00;56100.38;4915544;28;49697;-75
2022/10/03 01:40:20;;;;;;;;;19.50;18.50;;;;;-142.59;100.00;56100.38;4915822;28;50305;-74
2022/10/03 01:43:24;;;;;;;;;25.50;20.50;;;;;-142.59;100.00;56100.38;4915985;28;49670;-73
2022/10/03 01:46:07;;;;;;;;;18.50;18.25;;;;;-142.59;100.00;56100.38;4914920;28;50726;-71
2022/10/03 01:48:44;;;;;;;;;18.25;16.25;;;;;-142.59;100.00;56100.38;4915567;28;49744;-74
2022/10/03 01:51:20;;;;;;;;;19.50;17.25;;;;;-142.59;100.00;56100.38;4915310;28;50186;-73
2022/10/03 01:54:10;;;;;;;;;23.00;20.50;;;;;-142.59;100.00;56100.38;4915435;28;49688;-73
2022/10/03 01:56:57;;;;;;;;;17.00;17.00;;;;;-142.59;100.00;56100.38;4915287;28;50743;-73
2022/10/03 01:59:37;;;;;;;;;21.00;18.25;;;;;-142.59;100.00;56100.38;4914495;28;49860;-74
2022/10/03 02:02:20;;;;;;;;;18.00;17.75;;;;;-142.59;100.00;56100.38;4915507;28;49869;-74
2022/10/03 02:04:57;;;;;;;;;20.00;17.25;;;;;-142.59;100.00;56100.38;4915178;28;49870;-73
2022/10/03 02:07:34;;;;;;;;;20.50;18.25;;;;;-142.59;100.00;56100.38;4914964;28;50693;-74
2022/10/03 02:10:18;;;;;;;;;18.25;17.00;;;;;-142.59;100.00;56100.38;4915071;28;49769;-74
2022/10/03 02:13:04;;;;;;;;;20.50;19.25;;;;;-142.59;100.00;56100.38;4915229;28;49924;-74
2022/10/03 02:16:07;;;;;;;;;20.25;17.00;;;;;-142.59;100.00;56100.38;4915483;28;49774;-73
2022/10/03 02:18:50;;;;;;;;;17.00;17.00;;;;;-142.59;100.00;56100.38;4915138;28;50630;-73
2022/10/03 02:21:44;;;;;;;;;17.50;14.25;;;;;-142.59;100.00;56100.38;4915119;28;49944;-74
2022/10/03 02:24:16;;;;;;;;;16.50;16.50;;;;;-142.59;100.00;56100.38;4914950;28;49917;-74
2022/10/03 02:27:19;;;;;;;;;18.00;16.25;;;;;-142.59;100.00;56100.38;4914981;28;49917;-74
2022/10/03 02:30:33;;;;;;;;;21.50;18.00;;;;;-142.59;100.00;56100.38;4914930;28;50699;-74
2022/10/03 02:33:08;;;;;;;;;19.50;17.00;;;;;-142.59;100.00;56100.38;4914859;28;50213;-73
2022/10/03 02:35:50;;;;;;;;;19.25;19.00;;;;;-142.59;100.00;56100.38;4913189;28;50036;-73
2022/10/03 02:38:28;;;;;;;;;12.75;12.00;;;;;-142.59;100.00;56100.38;4915016;28;49656;-73
2022/10/03 02:41:14;;;;;;;;;20.75;19.25;;;;;-142.59;100.00;56100.38;4914934;28;49884;-74
2022/10/03 02:43:52;;;;;;;;;22.25;20.75;;;;;-142.59;100.00;56100.38;4914517;28;49797;-73
2022/10/03 02:46:52;;;;;;;;;17.25;15.25;;;;;-142.59;100.00;56100.38;4914592;28;49680;-73
2022/10/03 02:49:23;;;;;;;;;19.00;19.00;;;;;-142.59;100.00;56100.38;4914604;28;49786;-73
2022/10/03 02:52:18;;;;;;;;;20.75;19.75;;;;;-142.59;100.00;56100.38;4914189;28;49736;-73
2022/10/03 02:54:52;;;;;;;;;22.50;22.00;;;;;-142.59;100.00;56100.38;4914641;28;49734;-73
2022/10/03 02:57:36;;;;;;;;;24.25;22.00;;;;;-142.59;100.00;56100.38;4914488;28;49833;-73
2022/10/03 03:00:06;;;;;;;;;20.75;18.00;;;;;-142.59;100.00;56100.38;4914702;28;50584;-71
2022/10/03 03:03:11;;;;;;;;;21.25;21.25;;;;;-142.59;100.00;56100.38;4914198;28;50494;-73
2022/10/03 03:05:58;;;;;;;;;25.50;25.00;;;;;-142.59;100.00;56100.38;4914024;28;49695;-72
2022/10/03 03:08:26;;;;;;;;;22.50;20.75;;;;;-142.59;100.00;56100.38;4914454;28;49966;-73
2022/10/03 03:11:17;;;;;;;;;28.50;24.50;;;;;-142.59;100.00;56100.38;4914463;28;50576;-72
2022/10/03 03:13:44;;;;;;;;;26.00;21.50;;;;;-142.59;100.00;56100.38;4914325;28;51571;-72
2022/10/03 03:16:24;;;;;;;;;26.50;21.25;;;;;-142.59;100.00;56100.38;4914187;28;49791;-73
2022/10/03 03:19:03;;;;;;;;;26.00;24.75;;;;;-142.59;100.00;56100.38;4914297;28;49769;-72
2022/10/03 03:21:48;;;;;;;;;29.50;27.75;;;;;-142.59;100.00;56100.38;4914221;28;49932;-72
2022/10/03 03:24:38;;;;;;;;;30.50;28.50;;;;;-142.59;100.00;56100.38;4912441;28;51083;-72
2022/10/03 03:27:21;;;;;;;;;35.25;29.75;;;;;-142.59;100.00;56100.38;4914035;28;49862;-72
2022/10/03 03:30:09;;;;;;;;;45.50;37.75;;;;;-142.59;100.00;56100.38;4914274;28;49862;-72
2022/10/03 03:33:24;;;;;;;;;38.50;35.25;;;;;-142.59;100.00;56100.38;4914268;28;49771;-72
2022/10/03 03:36:17;;;;;;;;;44.00;36.75;;;;;-142.59;100.00;56100.38;4909370;28;50569;-72
2022/10/03 03:39:05;;;;;;;;;37.75;32.75;;;;;-142.59;100.00;56100.38;4913414;28;49696;-73
2022/10/03 03:41:42;;;;;;;;;40.25;35.75;;;;;-142.59;100.00;56100.38;4913721;28;49810;-72
2022/10/03 03:44:25;;;;;;;;;45.00;38.25;;;;;-142.59;100.00;56100.38;4913767;28;49695;-72
2022/10/03 03:47:28;;;;;;;;;51.25;41.25;;;;;-142.59;100.00;56100.38;4913600;28;50682;-72
2022/10/03 03:50:12;;;;;;;;;51.75;42.50;;;;;-142.59;100.00;56100.38;4913506;28;49966;-73
2022/10/03 03:53:05;;;;;;;;;58.25;48.25;;;;;-142.59;100.00;56100.38;4913633;28;49834;-73
2022/10/03 03:56:02;;;;;;;;;60.25;48.50;;;;;-142.59;100.00;56100.38;4913703;28;49799;-72
2022/10/03 03:58:56;;;;;;;;;55.50;44.75;;;;;-142.59;100.00;56100.38;4913213;28;49650;-71
2022/10/03 04:01:33;;;;;;;;;55.25;43.50;;;;;-142.59;100.00;56100.38;4912999;28;49902;-72
2022/10/03 04:04:22;;;;;;;;;43.75;37.00;;;;;-142.59;100.00;56100.38;4922770;28;49718;-73
2022/10/03 04:07:06;;;;;;;;;38.75;33.75;;;;;-142.59;100.00;56100.38;4914139;28;50130;-73
2022/10/03 04:09:55;;;;;;;;;35.50;31.50;;;;;-142.59;100.00;56100.38;4913638;28;49909;-72
2022/10/03 04:12:58;;;;;;;;;28.75;24.00;;;;;-142.59;100.00;56100.38;4921443;28;49890;-72
2022/10/03 04:15:38;;;;;;;;;30.00;26.00;;;;;-142.59;100.00;56100.38;4911294;28;49875;-72
2022/10/03 04:21:35;;;;;;;;;19.00;14.50;;;;;-142.59;100.00;56100.38;4912210;28;50102;-73
2022/10/03 04:24:19;;;;;;;;;21.50;18.75;;;;;-142.59;100.00;56100.38;4913117;28;49844;-73
2022/10/03 04:27:23;;;;;;;;;19.00;19.00;;;;;-142.59;100.00;56100.38;4913403;28;50011;-73
2022/10/03 04:29:57;;;;;;;;;17.00;17.00;;;;;-142.59;100.00;56100.38;4918707;28;49974;-72
2022/10/03 04:32:36;;;;;;;;;15.50;15.00;;;;;-142.59;100.00;56100.38;4912912;28;50655;-72
2022/10/03 04:35:14;;;;;;;;;26.50;19.50;;;;;-142.59;100.00;56100.38;4912962;28;49774;-72
2022/10/03 04:38:16;;;;;;;;;13.00;11.75;;;;;-142.59;100.00;56100.38;4913255;28;49799;-72
2022/10/03 04:41:22;;;;;;;;;22.75;20.25;;;;;-142.59;100.00;56100.38;4913488;28;49809;-72
2022/10/03 04:44:25;;;;;;;;;20.00;16.25;;;;;-142.59;100.00;56100.38;4913135;28;50418;-73
2022/10/03 04:47:02;;;;;;;;;21.75;19.25;;;;;-142.59;100.00;56100.38;4912943;28;49701;-72
2022/10/03 04:49:36;;;;;;;;;17.25;14.25;;;;;-142.59;100.00;56100.38;4914617;28;49844;-65
2022/10/03 04:52:39;;;;;;;;;16.25;14.75;;;;;-142.59;100.00;56100.38;4912790;28;49743;-65
2022/10/03 04:55:25;;;;;;;;;14.75;14.25;;;;;-142.59;100.00;56100.38;4912756;28;50347;-67
2022/10/03 04:58:06;;;;;;;;;12.50;10.25;;;;;-142.59;100.00;56100.38;4912770;28;49854;-67
2022/10/03 05:01:05;;;;;;;;;13.25;12.25;;;;;-142.59;100.00;56100.38;4913036;28;50080;-65
2022/10/03 05:04:15;;;;;;;;;18.50;13.25;;;;;-142.59;100.00;56100.38;4912928;28;49981;-66
2022/10/03 05:06:59;;;;;;;;;12.00;12.00;;;;;-142.59;100.00;56100.38;4893527;28;49739;-70
2022/10/03 05:09:59;;;;;;;;;12.00;11.25;;;;;-142.59;100.00;56100.38;4912519;28;49607;-65
2022/10/03 05:12:40;;;;;;;;;14.00;13.25;;;;;-142.59;100.00;56100.38;4912684;28;49661;-68
2022/10/03 05:15:24;;;;;;;;;20.00;15.00;;;;;-142.59;100.00;56100.38;4913050;28;50004;-67
2022/10/03 05:18:27;;;;;;;;;12.50;10.00;;;;;-142.59;100.00;56100.38;4926809;28;50650;-66
2022/10/03 05:21:08;;;;;;;;;14.75;14.75;;;;;-142.59;100.00;56100.38;4912633;28;49644;-66
2022/10/03 05:24:02;;;;;;;;;12.50;11.50;;;;;-142.59;100.00;56100.38;4912597;28;49857;-67
2022/10/03 05:26:48;;;;;;;;;17.25;13.75;;;;;-142.59;100.00;56100.38;4912765;28;49897;-68
2022/10/03 05:29:21;;;;;;;;;15.00;14.00;;;;;-142.59;100.00;56100.38;4910919;28;52387;-69
2022/10/03 05:32:12;;;;;;;;;12.75;11.25;;;;;-142.59;100.00;56100.38;4914960;28;49578;-70
2022/10/03 05:35:02;;;;;;;;;25.00;22.75;;;;;-142.59;100.00;56100.38;4915608;28;49866;-69
2022/10/03 05:37:55;;;;;;;;;14.00;13.75;;;;;-142.59;100.00;56100.38;4923506;28;49599;-70
2022/10/03 05:40:24;;;;;;;;;15.00;14.25;;;;;-142.59;100.00;56100.38;4915742;28;50545;-79
2022/10/03 05:42:59;;;;;;;;;18.25;14.25;;;;;-142.59;100.00;56100.38;4909543;28;49759;-71
2022/10/03 05:45:37;;;;;;;;;14.50;13.75;;;;;-142.59;100.00;56100.38;4915790;28;50118;-76
2022/10/03 05:48:23;;;;;;;;;18.50;15.50;;;;;-142.59;100.00;56100.38;4915859;28;49834;-71
2022/10/03 05:51:13;;;;;;;;;21.75;15.75;;;;;-142.59;100.00;56100.38;4919586;28;55451;-70
2022/10/03 05:53:59;;;;;;;;;16.75;13.00;;;;;-142.59;100.00;56100.38;4929816;28;49504;-71
2022/10/03 05:56:39;;;;;;;;;20.25;15.00;;;;;-142.59;100.00;56100.38;4939408;28;50020;-75
2022/10/03 05:59:31;;;;;;;;;18.50;15.75;;;;;-142.59;100.00;56100.38;4927689;28;49568;-74
2022/10/03 06:02:31;;;;;;;;;17.75;17.75;;;;;-142.59;100.00;56100.38;4916941;28;50051;-73
2022/10/03 06:05:11;;;;;;;;;19.50;17.25;;;;;-142.59;100.00;56100.38;4924635;28;49591;-75
2022/10/03 06:08:08;;;;;;;;;20.75;16.50;;;;;-142.59;100.00;56100.38;4919046;28;49671;-75
2022/10/03 06:10:52;;;;;;;;;18.50;18.50;;;;;-142.59;100.00;56100.38;4915505;28;49720;-74
2022/10/03 06:13:45;;;;;;;;;22.00;18.75;;;;;-142.59;100.00;56100.38;4917124;28;50457;-74
2022/10/03 06:16:16;;;;;;;;;20.25;20.25;;;;;-142.59;100.00;56100.38;4915521;28;49931;-74
2022/10/03 06:18:56;;;;;;;;;24.50;20.25;;;;;-142.59;100.00;56100.38;4915242;28;49817;-73
2022/10/03 06:21:24;;;;;;;;;21.00;18.00;;;;;-142.59;100.00;56100.38;4915448;28;49806;-75
2022/10/03 06:24:20;;;;;;;;;19.25;18.50;;;;;-142.59;100.00;56100.38;4914782;28;50218;-72
2022/10/03 06:27:01;;;;;;;;;19.25;18.75;;;;;-142.59;100.00;56100.38;4919686;28;49708;-77
2022/10/03 06:29:55;;;;;;;;;22.25;20.00;;;;;-142.59;100.00;56100.38;4914661;28;49986;-76
2022/10/03 06:32:39;;;;;;;;;19.50;17.25;;;;;-142.59;100.00;56100.38;4914943;28;50244;-77
2022/10/03 06:35:39;;;;;;;;;18.75;15.00;;;;;-142.59;100.00;56100.38;4914219;28;50953;-77
2022/10/03 06:39:05;;;;;;;;;20.75;19.25;;;;;-142.59;100.00;56100.38;4914488;28;49892;-78
2022/10/03 06:42:08;;;;;;;;;13.75;12.00;;;;;-142.59;100.00;56100.38;4873739;29;49956;-77
2022/10/03 06:44:55;;;;;;;;;20.25;16.25;;;;;-142.59;100.00;56100.38;4928980;28;49783;-77
2022/10/03 06:47:36;;;;;;;;;14.25;13.25;;;;;-142.59;100.00;56100.38;4914129;28;50491;-74
2022/10/03 06:50:27;;;;;;;;;16.50;16.00;;;;;-142.59;100.00;56100.38;4907904;28;49649;-77
2022/10/03 06:53:20;;;;;;;;;19.00;15.00;;;;;-142.59;100.00;56100.38;4913999;28;50061;-75
2022/10/03 06:56:04;;;;;;;;;18.50;18.50;;;;;-142.59;100.00;56100.38;4914360;28;50022;-75
2022/10/03 06:58:41;;;;;;;;;13.75;11.00;;;;;-142.59;100.00;56100.38;4913869;28;49721;-75
2022/10/03 07:01:31;;;;;;;;;15.75;13.00;;;;;-142.59;100.00;56100.38;4914187;28;49986;-75
2022/10/03 07:04:05;;;;;;;;;19.75;19.50;;;;;-142.59;100.00;56100.38;4913898;28;49781;-75
2022/10/03 07:06:47;;;;;;;;;18.50;15.00;;;;;-142.59;100.00;56100.38;4914457;28;50051;-75
2022/10/03 07:09:52;;;;;;;;;14.25;13.75;;;;;-142.59;100.00;56100.38;4914082;28;50244;-76
2022/10/03 07:12:44;;;;;;;;;18.50;18.00;;;;;-142.59;100.00;56100.38;4913876;28;49675;-75
2022/10/03 07:15:32;;;;;;;;;13.25;12.75;;;;;-142.59;100.00;56100.38;4914065;28;49847;-76
2022/10/03 07:18:13;;;;;;;;;22.25;19.25;;;;;-142.59;100.00;56100.38;4913987;28;49835;-76
2022/10/03 07:20:53;;;;;;;;;26.25;17.50;;;;;-142.59;100.00;56100.38;4913530;28;50386;-76
2022/10/03 07:23:40;;;;;;;;;20.50;19.50;;;;;-142.59;100.00;56100.38;4913859;28;49756;-76
2022/10/03 07:26:42;;;;;;;;;19.00;15.25;;;;;-142.59;100.00;56100.38;4913990;28;50077;-75
2022/10/03 07:29:16;;;;;;;;;20.00;16.25;;;;;-142.59;100.00;56100.38;4913954;28;49946;-76
2022/10/03 07:31:53;;;;;;;;;21.50;21.00;;;;;-142.59;100.00;56100.38;4913509;28;50452;-76
2022/10/03 07:35:06;;;;;;;;;24.50;19.50;;;;;-142.59;100.00;56100.38;4913355;28;49946;-76
2022/10/03 07:41:20;;;;;;;;;28.25;25.75;;;;;-142.59;100.00;56100.38;4914037;28;49767;-76
2022/10/03 07:44:04;;;;;;;;;26.75;24.25;;;;;-142.59;100.00;56100.38;4913612;28;49672;-76
2022/10/03 07:47:05;;;;;;;;;26.25;20.50;;;;;-142.59;100.00;56100.38;4927839;28;49715;-75
2022/10/03 07:49:44;;;;;;;;;26.75;23.50;;;;;-142.59;100.00;56100.38;4913327;28;49977;-75
2022/10/03 07:52:41;;;;;;;;;23.75;22.50;;;;;-142.59;100.00;56100.38;4913546;28;49925;-75
2022/10/03 07:55:27;;;;;;;;;18.50;15.00;;;;;-142.59;100.00;56100.38;4907760;28;50687;-74
2022/10/03 07:58:11;;;;;;;;;15.25;15.25;;;;;-142.59;100.00;56100.38;4913230;28;49876;-74
2022/10/03 08:00:59;;;;;;;;;14.25;12.25;;;;;-142.59;100.00;56100.38;4913489;28;49985;-75
2022/10/03 08:03:55;;;;;;;;;10.75;9.75;;;;;-142.59;100.00;56100.38;4927938;28;49938;-72
2022/10/03 08:06:41;;;;;;;;;12.75;12.75;;;;;-142.59;100.00;56100.38;4912860;28;50879;-76
2022/10/03 08:09:42;;;;;;;;;25.75;22.50;;;;;-142.59;100.00;56100.38;4913080;28;49633;-76
2022/10/03 08:12:48;;;;;;;;;21.75;16.00;;;;;-142.59;100.00;56100.38;4913076;28;50001;-75
2022/10/03 08:15:41;;;;;;;;;17.75;14.25;;;;;-142.59;100.00;56100.38;4907703;28;49873;-75
2022/10/03 08:18:27;;;;;;;;;17.25;15.25;;;;;-142.59;100.00;56100.38;4913139;28;49732;-75
2022/10/03 08:21:00;;;;;;;;;12.75;12.50;;;;;-142.59;100.00;56100.38;4912998;28;49704;-76
2022/10/03 08:23:54;;;;;;;;;14.50;14.50;;;;;-142.59;100.00;56100.38;4913168;28;50052;-76
2022/10/03 08:26:22;;;;;;;;;17.00;16.00;;;;;-142.59;100.00;56100.38;4913083;28;49922;-76
2022/10/03 08:28:56;;;;;;;;;17.00;16.25;;;;;-142.59;100.00;56100.38;4912745;28;49759;-76
2022/10/03 08:31:24;;;;;;;;;15.50;14.50;;;;;-142.59;100.00;56100.38;4912713;28;49773;-76
2022/10/03 08:34:08;;;;;;;;;15.75;15.75;;;;;-142.59;100.00;56100.38;4912841;28;49952;-76
2022/10/03 08:36:48;;;;;;;;;14.25;14.00;;;;;-142.59;100.00;56100.38;4913121;28;49636;-76
2022/10/03 08:39:30;;;;;;;;;20.00;17.50;;;;;-142.59;100.00;56100.38;4912822;28;49889;-77
2022/10/03 08:42:09;;;;;;;;;10.75;9.25;;;;;-142.59;100.00;56100.38;4912966;28;49716;-76
2022/10/03 08:45:16;;;;;;;;;18.75;18.50;;;;;-142.59;100.00;56100.38;4912562;28;49833;-76
2022/10/03 08:48:14;;;;;;;;;20.75;18.75;;;;;-142.59;100.00;56100.38;4912817;28;49849;-75
2022/10/03 08:50:49;;;;;;;;;19.75;18.00;;;;;-142.59;100.00;56100.38;4912347;28;50994;-75
2022/10/03 08:53:27;;;;;;;;;20.25;20.25;;;;;-142.59;100.00;56100.38;4912671;28;50016;-76
2022/10/03 08:56:10;;;;;;;;;17.75;17.00;;;;;-142.59;100.00;56100.38;4912830;28;49832;-75
2022/10/03 08:58:56;;;;;;;;;22.00;20.75;;;;;-142.59;100.00;56100.38;4912739;28;49891;-76
2022/10/03 09:01:44;;;;;;;;;18.75;16.25;;;;;-142.59;100.00;56100.38;4912516;28;49831;-74
2022/10/03 09:04:28;;;;;;;;;19.75;19.00;;;;;-142.59;100.00;56100.38;4912194;28;49816;-75
2022/10/03 09:06:59;;;;;;;;;22.00;20.50;;;;;-142.59;100.00;56100.38;4926583;28;49661;-75
2022/10/03 09:09:51;;;;;;;;;23.25;21.75;;;;;-142.59;100.00;56100.38;4916036;28;49912;-75
2022/10/03 09:12:25;;;;;;;;;23.75;21.00;;;;;-142.59;100.00;56100.38;4915676;28;50545;-75
2022/10/03 09:15:34;;;;;;;;;19.00;18.50;;;;;-142.59;100.00;56100.38;4930344;28;49917;-75
2022/10/03 09:18:12;;;;;;;;;21.75;19.50;;;;;-142.59;100.00;56100.38;4914476;28;49813;-75
2022/10/03 09:20:56;;;;;;;;;23.00;21.50;;;;;-142.59;100.00;56100.38;4915669;28;49997;-75
2022/10/03 09:23:44;;;;;;;;;21.25;17.25;;;;;-142.59;100.00;56100.38;4915356;28;49813;-75
2022/10/03 09:26:10;;;;;;;;;23.00;20.25;;;;;-142.59;100.00;56100.38;4915392;28;49862;-72
2022/10/03 09:29:07;;;;;;;;;20.25;19.75;;;;;-142.59;100.00;56100.38;4915744;28;49660;-75
2022/10/03 09:31:57;;;;;;;;;21.50;20.00;;;;;-142.59;100.00;56100.38;4885881;28;49814;-75
2022/10/03 09:34:22;;;;;;;;;19.50;16.25;;;;;-142.59;100.00;56100.38;4915067;28;50652;-74
2022/10/03 09:36:48;;;;;;;;;21.75;18.50;;;;;-142.59;100.00;56100.38;4915357;28;49799;-72
2022/10/03 09:39:51;;;;;;;;;17.50;17.50;;;;;-142.59;100.00;56100.38;4914021;28;49715;-75
2022/10/03 09:42:46;;;;;;;;;21.00;20.25;;;;;-142.59;100.00;56100.38;4915551;28;49962;-75
2022/10/03 09:45:38;;;;;;;;;25.25;22.50;;;;;-142.59;100.00;56100.38;4915139;28;49773;-74
2022/10/03 09:48:23;;;;;;;;;21.25;19.50;;;;;-142.59;100.00;56100.38;4893735;28;49737;-74
2022/10/03 09:51:00;;;;;;;;;19.75;18.25;;;;;-142.59;100.00;56100.38;4913881;28;49833;-72
2022/10/03 09:53:31;;;;;;;;;18.75;18.25;;;;;-142.59;100.00;56100.38;4916065;28;49918;-73
2022/10/03 09:56:32;;;;;;;;;19.75;19.25;;;;;-142.59;100.00;56100.38;4913530;28;53049;-73
2022/10/03 09:59:23;;;;;;;;;18.75;17.50;;;;;-142.59;100.00;56100.38;4913558;28;50025;-73
2022/10/03 10:02:18;;;;;;;;;26.25;21.25;;;;;-142.59;100.00;56100.38;4916114;28;49811;-75
2022/10/03 10:04:56;;;;;;;;;21.25;21.00;;;;;-142.59;100.00;56100.38;4915130;28;50025;-75
2022/10/03 10:07:54;;;;;;;;;20.50;19.50;;;;;-142.59;100.00;56100.38;4913382;28;52273;-71
2022/10/03 10:10:56;;;;;;;;;21.75;20.75;;;;;-142.59;100.00;56100.38;4929628;28;50559;-74
2022/10/03 10:13:36;;;;;;;;;20.00;20.00;;;;;-142.59;100.00;56100.38;4914774;28;49815;-74
2022/10/03 10:16:20;;;;;;;;;21.25;18.75;;;;;-142.59;100.00;56100.38;4914954;28;49764;-72
2022/10/03 10:19:16;;;;;;;;;27.50;25.25;;;;;-142.59;100.00;56100.38;4913654;28;50019;-73
2022/10/03 10:21:50;;;;;;;;;23.75;22.00;;;;;-142.59;100.00;56100.38;4914963;28;50488;-72
2022/10/03 10:24:41;;;;;;;;;23.00;21.50;;;;;-142.59;100.00;56100.38;4914825;28;49871;-73
2022/10/03 10:27:18;;;;;;;;;22.50;18.25;;;;;-142.59;100.00;56100.38;4914907;28;49718;-72
2022/10/03 10:29:58;;;;;;;;;28.50;22.50;;;;;-142.59;100.00;56100.38;4914272;28;50744;-72
2022/10/03 10:32:42;;;;;;;;;20.00;18.50;;;;;-142.59;100.00;56100.38;4914509;28;49936;-75
2022/10/03 10:35:28;;;;;;;;;20.75;18.00;;;;;-142.59;100.00;56100.38;4914134;28;49973;-75
2022/10/03 10:38:15;;;;;;;;;22.25;20.00;;;;;-142.59;100.00;56100.38;4914689;28;49898;-75
2022/10/03 10:40:55;;;;;;;;;23.25;20.50;;;;;-142.59;100.00;56100.38;4914543;28;50435;-76
2022/10/03 10:43:58;;;;;;;;;26.50;24.75;;;;;-142.59;100.00;56100.38;4916991;28;49617;-74
2022/10/03 10:46:26;;;;;;;;;19.00;18.00;;;;;-142.59;100.00;56100.38;4916309;28;49749;-73
2022/10/03 10:49:13;;;;;;;;;21.25;20.75;;;;;-142.59;100.00;56100.38;4914640;28;49878;-70
2022/10/03 10:51:48;;;;;;;;;20.75;18.00;;;;;-142.59;100.00;56100.38;4913801;28;50538;-69
2022/10/03 10:54:37;;;;;;;;;21.25;19.00;;;;;-142.59;100.00;56100.38;4914210;28;49846;-69
2022/10/03 10:57:24;;;;;;;;;23.50;22.00;;;;;-142.59;100.00;56100.38;4911018;28;50083;-69
2022/10/03 11:00:14;;;;;;;;;21.50;20.25;;;;;-142.59;100.00;56100.38;4914264;28;49839;-71
2022/10/03 11:02:45;;;;;;;;;20.00;19.50;;;;;-142.59;100.00;56100.38;4914060;28;49828;-67
2022/10/03 11:05:41;;;;;;;;;25.50;22.25;;;;;-142.59;100.00;56100.38;4913661;28;49718;-67
2022/10/03 11:08:43;;;;;;;;;29.50;25.75;;;;;-142.59;100.00;56100.38;4914059;28;49744;-68
2022/10/03 11:11:27;;;;;;;;;22.25;20.00;;;;;-142.59;100.00;56100.38;4914015;28;49768;-67
2022/10/03 11:14:02;;;;;;;;;19.25;18.00;;;;;-142.59;100.00;56100.38;4913812;28;49735;-68
2022/10/03 11:16:36;;;;;;;;;24.25;21.25;;;;;-142.59;100.00;56100.38;4913911;28;49882;-68
2022/10/03 11:19:37;;;;;;;;;26.50;23.25;;;;;-142.59;100.00;56100.38;4913823;28;49838;-67
2022/10/03 11:22:28;;;;;;;;;23.00;23.00;;;;;-142.59;100.00;56100.38;4898323;28;49947;-70
2022/10/03 11:25:30;;;;;;;;;26.00;25.00;;;;;-142.59;100.00;56100.38;4914827;28;50418;-70
2022/10/03 11:28:10;;;;;;;;;23.50;22.75;;;;;-142.59;100.00;56100.38;4913703;28;50005;-70
2022/10/03 11:30:53;;;;;;;;;22.75;21.25;;;;;-142.59;100.00;56100.38;4912731;28;49601;-70
2022/10/03 11:33:43;;;;;;;;;23.25;22.00;;;;;-142.59;100.00;56100.38;4913977;28;49681;-70
2022/10/03 11:36:31;;;;;;;;;27.25;23.00;;;;;-142.59;100.00;56100.38;4913618;28;50061;-70
2022/10/03 11:39:13;;;;;;;;;23.50;20.50;;;;;-142.59;100.00;56100.38;4893544;28;50016;-69
2022/10/03 11:42:01;;;;;;;;;16.25;16.25;;;;;-142.59;100.00;56100.38;4913672;28;49792;-68
2022/10/03 11:44:30;;;;;;;;;26.75;22.25;;;;;-142.59;100.00;56100.38;4913642;28;49888;-68
2022/10/03 11:47:23;;;;;;;;;26.00;22.00;;;;;-142.59;100.00;56100.38;4913074;28;50535;-69
2022/10/03 11:50:21;;;;;;;;;28.50;24.25;;;;;-142.59;100.00;56100.38;4913195;28;49858;-69
2022/10/03 11:53:13;;;;;;;;;25.00;22.75;;;;;-142.59;100.00;56100.38;4913660;28;49757;-69
2022/10/03 11:55:42;;;;;;;;;23.00;20.75;;;;;-142.59;100.00;56100.38;4913700;28;50123;-68
2022/10/03 11:58:20;;;;;;;;;33.25;27.25;;;;;-142.59;100.00;56100.38;4913306;28;50363;-69
2022/10/03 12:01:07;;;;;;;;;21.50;20.50;;;;;-142.59;100.00;56100.38;4913158;28;49724;-69
2022/10/03 12:03:45;;;;;;;;;22.25;19.50;;;;;-142.59;100.00;56100.38;4912935;28;50013;-69
2022/10/03 12:09:45;;;;;;;;;19.25;18.25;;;;;-142.59;100.00;56100.38;4913108;28;49769;-68
2022/10/03 12:12:29;;;;;;;;;18.50;18.50;;;;;-142.59;100.00;56100.38;4907140;28;49821;-68
2022/10/03 12:15:05;;;;;;;;;22.00;20.75;;;;;-142.59;100.00;56100.38;4913385;28;50128;-69
2022/10/03 12:17:35;;;;;;;;;22.00;19.00;;;;;-142.59;100.00;56100.38;4913291;28;49833;-69
2022/10/03 12:20:29;;;;;;;;;24.75;21.25;;;;;-142.59;100.00;56100.38;4912792;28;49894;-68
2022/10/03 12:23:12;;;;;;;;;29.50;25.25;;;;;-142.59;100.00;56100.38;4912856;28;49910;-69
2022/10/03 12:25:42;;;;;;;;;29.00;20.00;;;;;-142.59;100.00;56100.38;4909124;28;49693;-68
2022/10/03 12:28:19;;;;;;;;;23.50;21.00;;;;;-142.59;100.00;56100.38;4913278;28;49871;-68
2022/10/03 12:30:53;;;;;;;;;23.50;21.75;;;;;-142.59;100.00;56100.38;4912824;28;50041;-68